Byron Township, Michigan
Current Conditions -  °F | °C
As of 6:53 AM on Wednesday 28 Jan 2015 (Local Time) from KGRR Reporting Station
Clear Clear  
Wind Chill:   Ceiling: Unl
Heat Index: 11°   Visibility: 9mi
Dew Point:   Wind: 5mph
Humidity: 84%   Direction: 150°SSE
Pressure: 30.3"   Gusts: NA
Location:  42.7984°N, 85.7381°W
Report Text: KGRR 281153Z 15004KT 9SM CLR M12/M14 A3030 RMK AO2 SLP277 4/002 I1000 I6000 T11171139 11106 21122 51008
Loading
Personal Weather Stations






























Interactive Weather Map New forecast layout! Learn more

10-Day Weather Forecast

Advertisements
Track Severe Weather on mobile